Alto Longa, Brazil
Current Conditions -  °F | °C
As of 12:00 PM on Sunday 21 Dec 2014 (Local Time) from SBTE Reporting Station
Scattered Clouds Scattered Clouds  
Wind Chill: 95°   Ceiling: Unl
Heat Index: 97°   Visibility: 6mi
Dew Point: 64°   Wind: 7mph
Humidity: 36%   Direction: 130°SE
Pressure: 29.85"   Gusts: NA
Location:  5.25°S, 42.21°W
Report Text: SBTE 211500Z 13006KT 9999 SCT030 35/18 Q1011
Loading
Personal Weather Stations






























Interactive Weather Map New forecast layout! Learn more

10-Day Weather Forecast

Advertisements
Track Severe Weather on mobile